Time;durP1;ratioP1;P1;durP2;ratioP2;P2;SDS_P1;SDS_P2;PMS_P1;PMS_P2;Temp;Humidity;BMP_temperature;BMP_pressure;BME280_temperature;BME280_humidity;BME280_pressure;Samples;Min_cycle;Max_cycle;Signal;HPM_P1;HPM_P2
2021/08/05 00:02:16;;;;;;;13.30;12.17;;;20.50;99.90;;;;;;5000159;28;20573;-79
2021/08/05 00:04:42;;;;;;;13.93;12.83;;;20.50;99.90;;;;;;5033157;28;20186;-79
2021/08/05 00:07:09;;;;;;;14.00;12.80;;;20.50;99.90;;;;;;5033166;28;20240;-79
2021/08/05 00:09:35;;;;;;;12.37;11.23;;;20.40;99.90;;;;;;5003878;28;20173;-79
2021/08/05 00:12:01;;;;;;;14.13;12.60;;;20.40;99.90;;;;;;5016646;28;21158;-78
2021/08/05 00:14:28;;;;;;;14.50;13.23;;;20.40;99.90;;;;;;5000080;28;20623;-79
2021/08/05 00:16:54;;;;;;;14.03;12.83;;;20.40;99.90;;;;;;5000200;28;20576;-79
2021/08/05 00:19:20;;;;;;;13.40;12.10;;;20.30;99.90;;;;;;5033223;28;20565;-77
2021/08/05 00:21:46;;;;;;;13.17;11.97;;;20.30;99.90;;;;;;5017044;28;20576;-77
2021/08/05 00:24:11;;;;;;;15.23;13.93;;;20.20;99.90;;;;;;5032456;28;20285;-78
2021/08/05 00:26:37;;;;;;;15.03;12.97;;;20.20;99.90;;;;;;4999845;28;20197;-78
2021/08/05 00:29:03;;;;;;;12.83;11.63;;;20.10;99.90;;;;;;5034007;28;20174;-78
2021/08/05 00:31:29;;;;;;;13.30;12.00;;;20.10;99.90;;;;;;5016343;28;20589;-78
2021/08/05 00:33:54;;;;;;;13.20;12.10;;;20.10;99.90;;;;;;5032293;28;20596;-78
2021/08/05 00:36:21;;;;;;;14.07;12.83;;;20.10;99.90;;;;;;5032438;28;20188;-78
2021/08/05 00:38:46;;;;;;;15.60;14.30;;;20.00;99.90;;;;;;5016190;28;21144;-78
2021/08/05 00:41:13;;;;;;;14.00;12.83;;;20.00;99.90;;;;;;5016711;28;20169;-78
2021/08/05 00:43:39;;;;;;;17.73;16.13;;;19.90;99.90;;;;;;5016501;28;20158;-78
2021/08/05 00:46:05;;;;;;;14.63;13.33;;;19.90;99.90;;;;;;5018625;28;20580;-78
2021/08/05 00:48:31;;;;;;;14.80;13.57;;;19.90;99.90;;;;;;5032434;28;20631;-78
2021/08/05 00:50:58;;;;;;;13.70;12.60;;;19.90;99.90;;;;;;5015915;28;20583;-78
2021/08/05 00:53:26;;;;;;;16.83;15.33;;;19.90;99.90;;;;;;5033790;28;20620;-78
2021/08/05 00:55:52;;;;;;;16.77;15.30;;;19.90;99.90;;;;;;5015112;28;20739;-78
2021/08/05 00:58:18;;;;;;;16.10;14.60;;;19.90;99.90;;;;;;4999627;28;20561;-78
2021/08/05 01:00:49;;;;;;;15.80;14.30;;;19.90;99.90;;;;;;5015501;28;20571;-78
2021/08/05 01:03:28;;;;;;;15.97;14.57;;;19.90;99.90;;;;;;5032253;28;20671;-77
2021/08/05 01:06:34;;;;;;;15.37;14.07;;;19.90;99.90;;;;;;5015138;28;20596;-77
2021/08/05 01:09:32;;;;;;;14.77;13.57;;;19.90;99.90;;;;;;5002707;28;20679;-78
2021/08/05 01:12:13;;;;;;;16.03;14.50;;;19.80;99.90;;;;;;4995556;28;20584;-78
2021/08/05 01:14:41;;;;;;;14.37;13.17;;;19.80;99.90;;;;;;5014900;28;20675;-78
2021/08/05 01:17:10;;;;;;;14.83;13.63;;;19.80;99.90;;;;;;4999089;28;20572;-78
2021/08/05 01:19:53;;;;;;;16.00;14.70;;;19.80;99.90;;;;;;5032572;28;21061;-78
2021/08/05 01:22:42;;;;;;;16.03;14.50;;;19.70;99.90;;;;;;5034845;28;20661;-77
2021/08/05 01:25:14;;;;;;;17.17;15.57;;;19.70;99.90;;;;;;4998556;28;20623;-78
2021/08/05 01:27:41;;;;;;;17.10;15.60;;;19.70;99.90;;;;;;5015306;28;21000;-78
2021/08/05 01:30:10;;;;;;;17.20;15.60;;;19.70;99.90;;;;;;5031770;28;20604;-78
2021/08/05 01:32:37;;;;;;;17.10;15.80;;;19.70;99.90;;;;;;5014746;28;20568;-78
2021/08/05 01:35:03;;;;;;;15.90;14.63;;;19.70;99.90;;;;;;5014741;28;20655;-78
2021/08/05 01:37:30;;;;;;;15.90;14.40;;;19.70;99.90;;;;;;5032571;28;20951;-78
2021/08/05 01:39:56;;;;;;;14.87;13.77;;;19.70;99.90;;;;;;5031681;28;20622;-77
2021/08/05 01:42:23;;;;;;;16.10;14.80;;;19.70;99.90;;;;;;5032578;28;20630;-78
2021/08/05 01:44:52;;;;;;;15.07;13.67;;;19.70;99.90;;;;;;5014813;28;21189;-78
2021/08/05 01:47:20;;;;;;;16.77;15.47;;;19.70;99.90;;;;;;5014730;28;20825;-78
2021/08/05 01:49:47;;;;;;;14.73;13.53;;;19.70;99.90;;;;;;5031289;28;20914;-78
2021/08/05 01:52:14;;;;;;;14.43;13.33;;;19.70;99.90;;;;;;5031300;28;20564;-78
2021/08/05 01:54:40;;;;;;;14.57;13.27;;;19.70;99.90;;;;;;5014389;28;21049;-78
2021/08/05 01:57:09;;;;;;;15.03;13.87;;;19.70;99.90;;;;;;5031112;28;20568;-78
2021/08/05 01:59:35;;;;;;;14.60;13.40;;;19.70;99.90;;;;;;5035647;28;20937;-77
2021/08/05 02:02:02;;;;;;;14.37;13.10;;;19.70;99.90;;;;;;5014521;28;20580;-78
2021/08/05 02:04:37;;;;;;;14.63;13.43;;;19.70;99.90;;;;;;5030841;28;20557;-78
2021/08/05 02:07:23;;;;;;;14.93;13.70;;;19.70;99.90;;;;;;5013367;28;21131;-78
2021/08/05 02:10:03;;;;;;;14.43;13.27;;;19.70;99.90;;;;;;5031146;28;20576;-78
2021/08/05 02:12:38;;;;;;;13.23;12.33;;;19.70;99.90;;;;;;4998125;28;20615;-78
2021/08/05 02:15:06;;;;;;;13.63;12.53;;;19.70;99.90;;;;;;5014148;28;21020;-78
2021/08/05 02:17:38;;;;;;;14.10;13.00;;;19.70;99.90;;;;;;5014269;28;20583;-78
2021/08/05 02:20:08;;;;;;;14.87;13.67;;;19.70;99.90;;;;;;5014564;28;20627;-78
2021/08/05 02:22:37;;;;;;;16.70;15.40;;;19.70;99.90;;;;;;5014840;28;20615;-78
2021/08/05 02:25:04;;;;;;;17.17;15.67;;;19.60;99.90;;;;;;5014373;28;20658;-78
2021/08/05 02:27:30;;;;;;;14.90;13.60;;;19.50;99.90;;;;;;5030310;28;20584;-78
2021/08/05 02:29:58;;;;;;;15.10;14.00;;;19.50;99.90;;;;;;4997897;28;20935;-78
2021/08/05 02:32:24;;;;;;;15.50;14.17;;;19.50;99.90;;;;;;5014367;28;20581;-78
2021/08/05 02:34:51;;;;;;;15.60;14.30;;;19.50;99.90;;;;;;5030057;28;20663;-78
2021/08/05 02:37:17;;;;;;;14.93;13.57;;;19.50;99.90;;;;;;5034404;28;20583;-78
2021/08/05 02:39:42;;;;;;;16.60;15.17;;;19.50;99.90;;;;;;5013897;28;20577;-79
2021/08/05 02:42:09;;;;;;;15.27;13.97;;;19.50;99.90;;;;;;5014317;28;21140;-78
2021/08/05 02:44:36;;;;;;;15.13;13.93;;;19.50;99.90;;;;;;4997163;28;20205;-78
2021/08/05 02:47:03;;;;;;;14.70;13.60;;;19.50;99.90;;;;;;5013994;28;20603;-78
2021/08/05 02:49:31;;;;;;;13.57;12.50;;;19.40;99.90;;;;;;5030326;28;20569;-78
2021/08/05 02:51:57;;;;;;;14.20;13.00;;;19.40;99.90;;;;;;5013944;28;20577;-78
2021/08/05 02:54:24;;;;;;;15.27;14.17;;;19.40;99.90;;;;;;5016427;28;20718;-78
2021/08/05 02:56:50;;;;;;;14.17;13.03;;;19.30;99.90;;;;;;5015226;28;21193;-78
2021/08/05 02:59:16;;;;;;;14.90;13.50;;;19.40;99.90;;;;;;5033491;28;20572;-78
2021/08/05 03:01:42;;;;;;;14.90;13.70;;;19.40;99.90;;;;;;5007985;28;20639;-78
2021/08/05 03:04:11;;;;;;;13.80;12.70;;;19.40;99.90;;;;;;5026435;28;21272;-78
2021/08/05 03:06:39;;;;;;;14.47;13.30;;;19.40;99.90;;;;;;5050235;28;20584;-78
2021/08/05 03:09:06;;;;;;;14.07;13.03;;;19.40;99.90;;;;;;5007629;28;21010;-78
2021/08/05 03:11:31;;;;;;;15.30;12.50;;;19.40;99.90;;;;;;5033908;28;20736;-78
2021/08/05 03:13:57;;;;;;;14.13;12.93;;;19.40;99.90;;;;;;5020136;28;20661;-78
2021/08/05 03:17:24;;;;;;;14.10;13.00;;;19.40;99.90;;;;;;5033691;28;20218;-79
2021/08/05 03:21:01;;;;;;;11.77;10.87;;;19.40;99.90;;;;;;5034869;28;20599;-78
2021/08/05 03:23:27;;;;;;;13.43;12.37;;;19.40;99.90;;;;;;5054243;28;20594;-78
2021/08/05 03:25:52;;;;;;;13.60;12.50;;;19.40;99.90;;;;;;5053695;28;20192;-77
2021/08/05 03:28:18;;;;;;;13.50;12.40;;;19.40;99.90;;;;;;5055645;28;20557;-78
2021/08/05 03:30:44;;;;;;;12.40;11.30;;;19.30;99.90;;;;;;5054920;28;20169;-78
2021/08/05 03:33:09;;;;;;;13.00;11.70;;;19.40;99.90;;;;;;5055154;28;20165;-77
2021/08/05 03:35:35;;;;;;;12.20;11.10;;;19.40;99.90;;;;;;5054442;28;20224;-78
2021/08/05 03:38:01;;;;;;;13.40;12.20;;;19.40;99.90;;;;;;5055611;28;20169;-78
2021/08/05 03:40:26;;;;;;;12.97;11.87;;;19.30;99.90;;;;;;5054929;28;20168;-78
2021/08/05 03:42:52;;;;;;;14.03;12.93;;;19.40;99.90;;;;;;5055199;28;20650;-78
2021/08/05 03:45:18;;;;;;;13.10;12.10;;;19.40;99.90;;;;;;5054417;28;20196;-78
2021/08/05 03:47:43;;;;;;;13.53;12.33;;;19.40;99.90;;;;;;5055066;28;20169;-78
2021/08/05 03:50:09;;;;;;;14.20;12.90;;;19.40;99.90;;;;;;5058791;28;20165;-79
2021/08/05 03:52:35;;;;;;;12.50;11.47;;;19.50;99.90;;;;;;5054733;28;20219;-79
2021/08/05 03:55:03;;;;;;;13.43;12.13;;;19.50;99.90;;;;;;5054384;28;21021;-78
2021/08/05 03:57:28;;;;;;;13.53;12.33;;;19.50;99.90;;;;;;5054562;28;20168;-79
2021/08/05 03:59:54;;;;;;;12.30;11.30;;;19.50;99.90;;;;;;5053504;28;20966;-78
2021/08/05 04:02:20;;;;;;;10.87;9.97;;;19.50;99.90;;;;;;5054513;28;20161;-78
2021/08/05 04:04:46;;;;;;;12.53;11.53;;;19.50;99.90;;;;;;5054316;28;20193;-79
2021/08/05 04:07:12;;;;;;;13.23;12.23;;;19.50;99.90;;;;;;5053142;28;20570;-78
2021/08/05 04:09:38;;;;;;;13.17;12.07;;;19.50;99.90;;;;;;5054544;28;20255;-78
2021/08/05 04:12:04;;;;;;;12.53;11.53;;;19.50;99.90;;;;;;5052944;28;20180;-78
2021/08/05 04:14:30;;;;;;;12.20;11.20;;;19.50;99.90;;;;;;5051814;28;20643;-78
2021/08/05 04:16:56;;;;;;;12.80;11.60;;;19.50;99.90;;;;;;5053858;28;20690;-78
2021/08/05 04:19:26;;;;;;;12.47;11.47;;;19.50;99.90;;;;;;5044960;28;20169;-78
2021/08/05 04:21:53;;;;;;;12.07;11.07;;;19.60;99.90;;;;;;5048233;28;20183;-78
2021/08/05 04:24:19;;;;;;;12.87;11.60;;;19.50;99.90;;;;;;5054133;28;20655;-78
2021/08/05 04:26:45;;;;;;;11.70;10.80;;;19.50;99.90;;;;;;5058841;28;20613;-78
2021/08/05 04:29:10;;;;;;;13.83;12.80;;;19.50;99.90;;;;;;5052123;28;21196;-78
2021/08/05 04:31:36;;;;;;;12.63;11.63;;;19.50;99.90;;;;;;5054499;28;20246;-78
2021/08/05 04:34:02;;;;;;;11.90;10.83;;;19.40;99.90;;;;;;5062742;28;20197;-78
2021/08/05 04:36:27;;;;;;;11.80;10.80;;;19.40;99.90;;;;;;5054092;28;20527;-77
2021/08/05 04:38:53;;;;;;;11.40;9.87;;;19.40;99.90;;;;;;5053917;28;20185;-78
2021/08/05 04:41:19;;;;;;;11.00;10.07;;;19.50;99.90;;;;;;5053894;28;20169;-78
2021/08/05 04:43:44;;;;;;;11.00;10.00;;;19.50;99.90;;;;;;5053645;28;20170;-78
2021/08/05 04:46:10;;;;;;;10.83;8.93;;;19.50;99.90;;;;;;5053476;28;20173;-78
2021/08/05 04:48:36;;;;;;;10.97;9.87;;;19.40;99.90;;;;;;5053672;28;20169;-78
2021/08/05 04:51:01;;;;;;;9.50;8.73;;;19.40;99.90;;;;;;5052533;28;20168;-78
2021/08/05 04:53:27;;;;;;;10.23;9.43;;;19.40;99.90;;;;;;5053667;28;20173;-78
2021/08/05 04:55:53;;;;;;;9.87;8.97;;;19.40;99.90;;;;;;5053124;28;20204;-78
2021/08/05 04:58:18;;;;;;;9.23;8.50;;;19.50;99.90;;;;;;5053468;28;20501;-78
2021/08/05 05:00:44;;;;;;;9.63;8.73;;;19.40;99.90;;;;;;5054390;28;20176;-78
2021/08/05 05:03:11;;;;;;;10.40;9.53;;;19.40;99.90;;;;;;5057375;28;20219;-78
2021/08/05 05:05:37;;;;;;;10.07;9.23;;;19.50;99.90;;;;;;5052244;28;20189;-78
2021/08/05 05:08:22;;;;;;;8.00;7.37;;;19.50;99.90;;;;;;5053095;28;20570;-78
2021/08/05 05:10:49;;;;;;;10.10;9.30;;;19.60;99.90;;;;;;5053466;28;20599;-78
2021/08/05 05:13:15;;;;;;;10.83;9.83;;;19.60;99.90;;;;;;5053200;28;20566;-78
2021/08/05 05:15:41;;;;;;;9.60;8.73;;;19.60;99.90;;;;;;5052682;28;20630;-78
2021/08/05 05:18:07;;;;;;;10.87;10.07;;;19.60;99.90;;;;;;5053073;28;20636;-78
2021/08/05 05:20:34;;;;;;;9.37;8.67;;;19.50;99.90;;;;;;5053278;28;21123;-78
2021/08/05 05:23:00;;;;;;;9.77;8.97;;;19.50;99.90;;;;;;5053155;28;20564;-78
2021/08/05 05:25:27;;;;;;;9.40;8.70;;;19.50;99.90;;;;;;5052461;28;21004;-78
2021/08/05 05:27:53;;;;;;;9.73;8.77;;;19.50;99.90;;;;;;5053130;28;20647;-78
2021/08/05 05:30:19;;;;;;;10.13;9.33;;;19.50;99.90;;;;;;5052967;28;20655;-79
2021/08/05 05:32:46;;;;;;;9.20;8.50;;;19.60;99.90;;;;;;5052933;28;20161;-78
2021/08/05 05:35:17;;;;;;;8.93;8.23;;;19.60;99.90;;;;;;5052330;28;20685;-79
2021/08/05 05:37:44;;;;;;;9.63;8.80;;;19.60;99.90;;;;;;5052115;28;20929;-79
2021/08/05 05:40:11;;;;;;;9.40;8.63;;;19.60;99.90;;;;;;5057023;28;20573;-79
2021/08/05 05:42:37;;;;;;;10.20;9.40;;;19.70;99.90;;;;;;5052181;28;20555;-79
2021/08/05 05:45:04;;;;;;;8.63;7.97;;;19.70;99.90;;;;;;5052189;28;20590;-79
2021/08/05 05:47:29;;;;;;;9.17;8.37;;;19.80;99.90;;;;;;5052705;28;20897;-79
2021/08/05 05:49:55;;;;;;;10.07;9.33;;;19.80;99.90;;;;;;5051233;28;20562;-78
2021/08/05 05:52:21;;;;;;;9.57;8.80;;;19.90;99.90;;;;;;5052759;28;20165;-78
2021/08/05 05:54:47;;;;;;;9.77;8.97;;;20.00;99.90;;;;;;5034447;28;20280;-78
2021/08/05 05:57:43;;;;;;;9.80;9.00;;;20.10;99.90;;;;;;5043729;28;20727;-77
2021/08/05 06:25:42;;;;;;;8.23;7.60;;;20.40;99.90;;;;;;5010013;28;20616;-78
2021/08/05 06:37:24;;;;;;;8.43;7.73;;;20.70;99.90;;;;;;5004555;28;20591;-78
2021/08/05 06:40:50;;;;;;;8.90;8.17;;;20.70;99.90;;;;;;5015838;28;21043;-78
2021/08/05 06:45:05;;;;;;;8.73;7.93;;;20.80;99.90;;;;;;4989343;28;20609;-78
2021/08/05 06:48:53;;;;;;;8.40;7.80;;;21.00;99.90;;;;;;4989211;28;20594;-78
2021/08/05 06:52:52;;;;;;;8.53;7.73;;;21.30;99.90;;;;;;4915177;28;21402;-78
2021/08/05 07:01:25;;;;;;;9.60;8.80;;;21.70;99.90;;;;;;4950877;29;20596;-79
2021/08/05 07:05:47;;;;;;;8.07;7.43;;;21.60;99.90;;;;;;4908078;29;20616;-78
2021/08/05 07:08:13;;;;;;;8.13;7.40;;;21.50;99.90;;;;;;4908374;28;20584;-79
2021/08/05 07:10:38;;;;;;;9.83;8.87;;;21.50;99.90;;;;;;5011639;28;20580;-78
2021/08/05 07:13:13;;;;;;;8.93;7.33;;;21.50;99.90;;;;;;5017613;28;20169;-77
2021/08/05 07:16:04;;;;;;;7.83;7.20;;;21.50;99.90;;;;;;5035167;28;20631;-78
2021/08/05 07:18:42;;;;;;;7.90;7.10;;;21.50;99.90;;;;;;5033303;28;20683;-77
2021/08/05 07:21:11;;;;;;;7.33;6.73;;;21.50;99.90;;;;;;5032322;28;20602;-78
2021/08/05 07:23:37;;;;;;;8.43;7.83;;;21.50;99.90;;;;;;5033448;28;21078;-78
2021/08/05 07:26:03;;;;;;;8.70;8.00;;;21.50;99.90;;;;;;5050421;28;20605;-77
2021/08/05 07:28:29;;;;;;;8.23;7.07;;;21.50;99.90;;;;;;5018148;28;20177;-77
2021/08/05 07:30:57;;;;;;;7.77;7.07;;;21.50;99.90;;;;;;5057046;28;20588;-78
2021/08/05 07:34:13;;;;;;;7.93;7.30;;;21.50;99.90;;;;;;5017241;28;20177;-77
2021/08/05 07:37:39;;;;;;;6.60;5.93;;;21.60;99.90;;;;;;4999363;28;20623;-78
2021/08/05 07:40:09;;;;;;;9.47;7.30;;;21.70;99.90;;;;;;5015550;28;20588;-79
2021/08/05 07:42:34;;;;;;;8.80;8.00;;;21.80;99.90;;;;;;5050935;28;20602;-78
2021/08/05 07:45:00;;;;;;;7.60;7.10;;;21.80;99.90;;;;;;5032993;28;20643;-79
2021/08/05 07:47:27;;;;;;;8.73;8.07;;;21.90;99.90;;;;;;5051004;28;20177;-79
2021/08/05 07:49:53;;;;;;;7.73;7.13;;;21.90;99.90;;;;;;5050871;28;20180;-79
2021/08/05 07:52:19;;;;;;;7.57;6.90;;;21.90;99.90;;;;;;5050843;28;20563;-78
2021/08/05 07:54:47;;;;;;;8.27;7.57;;;21.90;99.90;;;;;;5016256;28;20220;-78
2021/08/05 07:57:13;;;;;;;8.20;7.50;;;22.00;99.90;;;;;;5050425;28;20564;-79
2021/08/05 07:59:39;;;;;;;9.03;8.23;;;22.10;99.90;;;;;;5033165;28;20165;-80
2021/08/05 08:02:05;;;;;;;7.90;7.20;;;22.20;99.90;;;;;;5032846;28;20335;-79
2021/08/05 08:04:31;;;;;;;7.63;6.93;;;22.30;99.90;;;;;;5037089;28;20635;-78
2021/08/05 08:06:56;;;;;;;7.80;7.20;;;22.50;99.90;;;;;;5058883;28;20181;-78
2021/08/05 08:09:22;;;;;;;7.70;7.10;;;22.60;99.90;;;;;;5054158;28;20176;-77
2021/08/05 08:11:51;;;;;;;8.27;7.57;;;22.70;99.90;;;;;;5036498;28;20171;-78
2021/08/05 08:14:17;;;;;;;9.40;8.60;;;22.80;99.90;;;;;;5035103;28;20216;-78
2021/08/05 08:16:43;;;;;;;8.33;7.63;;;22.90;99.90;;;;;;5003452;28;20568;-78
2021/08/05 08:19:10;;;;;;;8.43;7.73;;;23.00;99.90;;;;;;5034616;28;20212;-77
2021/08/05 08:21:36;;;;;;;8.23;7.47;;;23.00;99.90;;;;;;5035941;28;20658;-78
2021/08/05 08:27:46;;;;;;;7.30;6.70;;;23.20;99.90;;;;;;4973118;28;20668;-78
2021/08/05 08:30:13;;;;;;;7.63;7.03;;;23.40;99.90;;;;;;5053340;28;21131;-78
2021/08/05 08:32:39;;;;;;;7.60;7.00;;;23.70;99.90;;;;;;5036192;28;20536;-78
2021/08/05 08:35:06;;;;;;;6.83;6.20;;;24.00;99.90;;;;;;5035393;28;20626;-78
2021/08/05 08:37:33;;;;;;;7.77;7.07;;;24.30;99.90;;;;;;5019545;28;21119;-78
2021/08/05 08:39:59;;;;;;;8.27;7.67;;;24.60;99.90;;;;;;5018475;28;20597;-78
2021/08/05 08:42:25;;;;;;;7.70;7.10;;;24.90;99.90;;;;;;5019456;28;20666;-78
2021/08/05 08:44:51;;;;;;;7.77;6.97;;;25.00;99.90;;;;;;5058819;28;20669;-78
2021/08/05 08:47:20;;;;;;;7.63;5.93;;;25.10;99.90;;;;;;5035547;28;20571;-77
2021/08/05 08:49:49;;;;;;;6.07;5.57;;;25.20;99.90;;;;;;5035493;28;20572;-77
2021/08/05 08:52:23;;;;;;;6.57;5.90;;;25.50;99.90;;;;;;5035730;28;20602;-77
2021/08/05 08:54:50;;;;;;;7.50;5.53;;;25.70;99.90;;;;;;5035099;28;20685;-77
2021/08/05 08:57:20;;;;;;;7.67;5.97;;;25.80;99.90;;;;;;5052298;28;20613;-77
2021/08/05 08:59:46;;;;;;;6.30;5.70;;;26.00;99.90;;;;;;5035096;28;21123;-77
2021/08/05 09:02:14;;;;;;;5.97;5.50;;;26.20;99.90;;;;;;5018908;28;21002;-78
2021/08/05 09:04:40;;;;;;;6.00;5.50;;;26.30;99.90;;;;;;5018640;28;20664;-79
2021/08/05 09:07:07;;;;;;;5.00;4.60;;;26.40;99.90;;;;;;5035418;28;20979;-79
2021/08/05 09:09:33;;;;;;;5.00;4.60;;;26.50;99.90;;;;;;5035231;28;20568;-78
2021/08/05 09:11:58;;;;;;;5.03;4.63;;;26.60;99.90;;;;;;5052894;28;20583;-78
2021/08/05 09:14:41;;;;;;;5.33;4.63;;;26.70;99.90;;;;;;5052581;28;20193;-78
2021/08/05 09:17:32;;;;;;;5.77;5.27;;;26.80;99.90;;;;;;5034812;28;20157;-78
2021/08/05 09:20:01;;;;;;;6.63;4.97;;;26.80;99.90;;;;;;5037668;28;20912;-78
2021/08/05 09:22:35;;;;;;;5.87;5.33;;;26.90;99.90;;;;;;5053171;28;20579;-78
2021/08/05 09:25:24;;;;;;;5.77;4.50;;;26.90;99.90;;;;;;5001819;28;20603;-78
2021/08/05 09:27:52;;;;;;;5.47;5.03;;;27.00;99.90;;;;;;5051794;28;20603;-78
2021/08/05 09:30:28;;;;;;;5.77;5.27;;;27.20;99.90;;;;;;5037156;28;20973;-77
2021/08/05 09:32:56;;;;;;;5.63;5.00;;;27.30;99.90;;;;;;5030720;28;20644;-78
2021/08/05 09:35:27;;;;;;;7.30;5.43;;;27.60;99.90;;;;;;5044922;28;20665;-78
2021/08/05 09:37:53;;;;;;;5.67;5.17;;;27.90;99.90;;;;;;5054395;28;20591;-78
2021/08/05 09:40:19;;;;;;;6.20;5.63;;;28.10;99.90;;;;;;5072474;28;20734;-78
2021/08/05 09:42:58;;;;;;;4.67;4.37;;;28.40;99.90;;;;;;5038043;28;20175;-78
2021/08/05 09:45:38;;;;;;;5.50;5.10;;;28.50;99.90;;;;;;5054108;28;20279;-78
2021/08/05 09:48:06;;;;;;;5.37;4.97;;;28.70;99.90;;;;;;5038028;28;20601;-78
2021/08/05 09:50:32;;;;;;;5.60;5.20;;;29.00;99.90;;;;;;5072240;28;20658;-78
2021/08/05 09:53:11;;;;;;;4.57;4.17;;;29.50;99.90;;;;;;5072425;28;20606;-78
2021/08/05 09:55:40;;;;;;;4.53;4.13;;;30.50;99.90;;;;;;5071541;28;20627;-78
2021/08/05 09:58:07;;;;;;;5.23;4.83;;;31.40;99.90;;;;;;5075016;28;20648;-77
2021/08/05 10:00:44;;;;;;;5.03;4.63;;;32.40;99.90;;;;;;5054063;28;20639;-78
2021/08/05 10:03:10;;;;;;;4.90;4.40;;;32.90;99.90;;;;;;5072073;28;20649;-77
2021/08/05 10:05:36;;;;;;;4.50;4.20;;;33.60;99.90;;;;;;5071559;28;20591;-77
2021/08/05 10:08:02;;;;;;;3.70;3.40;;;34.10;99.90;;;;;;5053764;28;20578;-77
2021/08/05 10:10:50;;;;;;;3.83;3.57;;;34.60;99.70;;;;;;5037465;28;20969;-77
2021/08/05 10:13:37;;;;;;;3.70;3.40;;;35.20;98.60;;;;;;5036804;28;20590;-77
2021/08/05 10:16:07;;;;;;;3.30;2.40;;;35.90;97.50;;;;;;5053324;28;20625;-77
2021/08/05 10:18:36;;;;;;;3.37;3.00;;;36.40;95.50;;;;;;5053832;28;20914;-78
2021/08/05 10:21:04;;;;;;;3.40;3.10;;;36.80;92.30;;;;;;5020550;28;20596;-77
2021/08/05 10:23:31;;;;;;;3.83;2.70;;;36.80;85.70;;;;;;5037400;28;20913;-77
2021/08/05 10:26:00;;;;;;;2.30;2.07;;;36.80;86.90;;;;;;5071278;28;20610;-78
2021/08/05 10:28:28;;;;;;;3.83;2.03;;;37.30;84.90;;;;;;5053680;28;20607;-77
2021/08/05 10:30:55;;;;;;;3.00;2.70;;;37.70;82.80;;;;;;5053906;28;20602;-77
2021/08/05 10:33:22;;;;;;;2.40;2.20;;;38.00;79.80;;;;;;5054731;28;20745;-77
2021/08/05 10:35:49;;;;;;;2.30;2.10;;;38.30;78.30;;;;;;5053569;28;20630;-77
2021/08/05 10:38:23;;;;;;;3.70;2.40;;;38.60;77.80;;;;;;5053481;28;20629;-77
2021/08/05 10:40:52;;;;;;;2.30;2.10;;;39.10;75.30;;;;;;5053776;28;20579;-75
2021/08/05 10:43:18;;;;;;;2.00;1.80;;;39.50;72.30;;;;;;5036517;28;20574;-76
2021/08/05 10:45:45;;;;;;;2.13;1.93;;;39.80;70.70;;;;;;5053297;28;20618;-75
2021/08/05 10:48:11;;;;;;;2.30;1.80;;;40.00;66.90;;;;;;5071157;28;20929;-75
2021/08/05 10:50:43;;;;;;;2.00;1.80;;;40.00;63.50;;;;;;5053503;28;20558;-75
2021/08/05 10:53:30;;;;;;;2.43;1.57;;;39.50;60.30;;;;;;5036749;28;20681;-77
2021/08/05 10:56:24;;;;;;;2.80;2.20;;;39.10;61.10;;;;;;5019737;28;21027;-77
2021/08/05 10:59:16;;;;;;;1.97;1.60;;;39.00;62.70;;;;;;5036477;28;20570;-77
2021/08/05 11:01:55;;;;;;;2.80;1.63;;;38.70;60.70;;;;;;5048682;28;20590;-77
2021/08/05 11:04:39;;;;;;;2.10;1.90;;;38.30;58.50;;;;;;5052780;28;20672;-77
2021/08/05 11:07:25;;;;;;;2.47;2.27;;;38.10;57.90;;;;;;5036555;28;20594;-77
2021/08/05 11:10:10;;;;;;;1.90;1.70;;;37.80;58.60;;;;;;5036806;28;20566;-77
2021/08/05 11:12:50;;;;;;;2.57;1.70;;;37.60;57.40;;;;;;5037450;28;20948;-77
2021/08/05 11:15:23;;;;;;;3.03;1.80;;;37.30;57.20;;;;;;5035936;28;21307;-78
2021/08/05 11:18:25;;;;;;;1.90;1.47;;;37.10;56.80;;;;;;5020239;28;21152;-78
2021/08/05 11:20:51;;;;;;;3.03;1.47;;;36.60;54.80;;;;;;5053204;28;20566;-77
2021/08/05 11:23:29;;;;;;;2.27;1.50;;;36.00;55.30;;;;;;5053102;28;20597;-77
2021/08/05 11:25:55;;;;;;;1.90;1.37;;;35.80;55.20;;;;;;5017987;28;20614;-77
2021/08/05 11:28:32;;;;;;;2.37;1.67;;;35.70;56.30;;;;;;5000811;28;20595;-77
2021/08/05 11:31:11;;;;;;;1.50;1.40;;;35.50;54.90;;;;;;5032863;28;20608;-77
2021/08/05 11:33:37;;;;;;;2.40;1.27;;;35.20;54.90;;;;;;5033148;28;20649;-77
2021/08/05 11:36:34;;;;;;;2.93;1.30;;;34.80;54.80;;;;;;5015672;28;20651;-77
2021/08/05 11:39:15;;;;;;;2.13;1.50;;;34.70;56.40;;;;;;5016900;28;20730;-77
2021/08/05 11:41:50;;;;;;;1.90;1.50;;;34.80;57.20;;;;;;5036662;28;21154;-77
2021/08/05 11:44:40;;;;;;;2.00;1.20;;;34.90;56.00;;;;;;5036700;28;20595;-77
2021/08/05 11:47:05;;;;;;;2.83;1.00;;;34.70;56.90;;;;;;5024486;28;20574;-77
2021/08/05 11:49:51;;;;;;;1.80;1.00;;;34.80;56.40;;;;;;5037352;28;20666;-77
2021/08/05 11:52:17;;;;;;;1.50;1.10;;;34.60;55.90;;;;;;5003722;28;20602;-77
2021/08/05 11:54:52;;;;;;;2.47;1.00;;;34.50;54.50;;;;;;5036241;28;20635;-77
2021/08/05 11:57:40;;;;;;;1.97;1.20;;;34.20;54.00;;;;;;5025134;28;20575;-77
2021/08/05 12:00:13;;;;;;;1.70;1.00;;;34.20;55.30;;;;;;5054478;28;20598;-77
2021/08/05 12:02:41;;;;;;;1.40;1.00;;;34.30;55.90;;;;;;5036663;28;20585;-77
2021/08/05 12:05:08;;;;;;;1.70;1.07;;;34.30;55.30;;;;;;5036020;28;20777;-77
2021/08/05 12:07:40;;;;;;;2.33;1.50;;;34.30;55.40;;;;;;5003123;28;20630;-77
2021/08/05 12:10:19;;;;;;;2.43;1.30;;;34.20;54.70;;;;;;5019803;28;20621;-77
2021/08/05 12:12:52;;;;;;;2.10;1.80;;;33.90;54.50;;;;;;5019897;28;20643;-77
2021/08/05 12:15:24;;;;;;;2.00;1.60;;;33.60;53.40;;;;;;5053770;28;20605;-77
2021/08/05 12:17:52;;;;;;;2.03;1.37;;;33.10;53.40;;;;;;5035991;28;20566;-77
2021/08/05 12:21:08;;;;;;;7.10;2.33;;;32.70;53.80;;;;;;5035946;28;20597;-77
2021/08/05 12:24:09;;;;;;;2.10;1.47;;;32.00;54.00;;;;;;5056078;28;20596;-78
2021/08/05 12:28:08;;;;;;;2.20;1.83;;;31.60;54.80;;;;;;5052816;28;20606;-78
2021/08/05 12:30:43;;;;;;;2.03;1.83;;;30.80;54.90;;;;;;5035761;28;21029;-77
2021/08/05 12:33:52;;;;;;;2.30;2.10;;;30.10;55.70;;;;;;5035454;28;20575;-77
2021/08/05 12:37:07;;;;;;;2.90;2.63;;;29.50;56.70;;;;;;5053677;28;20620;-77
2021/08/05 12:40:40;;;;;;;2.87;2.33;;;28.90;58.00;;;;;;5031715;28;20624;-77
2021/08/05 12:44:32;;;;;;;3.20;2.40;;;28.30;60.60;;;;;;5037037;28;20583;-77
2021/08/05 12:51:42;;;;;;;2.37;1.60;;;27.20;61.50;;;;;;5010494;28;20572;-77
2021/08/05 12:58:19;;;;;;;2.67;1.67;;;26.70;62.20;;;;;;5010987;28;20641;-77
2021/08/05 13:00:45;;;;;;;2.10;1.67;;;26.80;65.20;;;;;;5015130;28;20585;-77
2021/08/05 13:03:11;;;;;;;2.10;1.40;;;26.90;65.40;;;;;;4962425;28;20592;-77
2021/08/05 13:05:54;;;;;;;1.73;1.40;;;27.00;65.20;;;;;;4993093;28;20769;-77
2021/08/05 13:08:28;;;;;;;2.50;1.60;;;27.00;65.60;;;;;;4994592;28;20582;-77
2021/08/05 13:10:54;;;;;;;1.73;1.53;;;27.00;65.40;;;;;;4994017;28;20593;-77
2021/08/05 13:13:49;;;;;;;2.20;1.77;;;26.90;65.10;;;;;;4994489;28;20624;-77
2021/08/05 13:16:22;;;;;;;1.57;1.10;;;27.00;66.30;;;;;;4993946;28;20213;-76
2021/08/05 13:19:17;;;;;;;2.20;1.20;;;27.10;65.90;;;;;;5008819;28;20595;-76
2021/08/05 13:21:46;;;;;;;1.80;1.40;;;27.10;66.20;;;;;;5031192;28;20580;-76
2021/08/05 13:24:17;;;;;;;1.70;1.30;;;27.20;66.50;;;;;;5018181;28;20595;-76
2021/08/05 13:26:45;;;;;;;3.00;1.50;;;27.30;66.50;;;;;;5034376;28;20603;-76
2021/08/05 13:29:34;;;;;;;2.00;1.40;;;27.30;66.60;;;;;;5036042;28;20603;-76
2021/08/05 13:32:01;;;;;;;2.37;1.20;;;27.40;67.50;;;;;;5034757;28;21145;-76
2021/08/05 13:34:27;;;;;;;1.40;0.90;;;27.60;67.80;;;;;;5001089;28;20615;-76
2021/08/05 13:36:53;;;;;;;2.90;1.80;;;27.70;68.50;;;;;;5036587;28;20635;-76
2021/08/05 13:39:46;;;;;;;1.80;1.20;;;27.90;67.80;;;;;;5003271;28;20170;-76
2021/08/05 13:42:13;;;;;;;1.77;1.30;;;28.00;67.50;;;;;;5034623;28;20634;-76
2021/08/05 13:44:40;;;;;;;1.40;1.10;;;28.10;67.10;;;;;;5001272;28;20607;-77
2021/08/05 13:47:06;;;;;;;1.63;0.97;;;28.10;66.90;;;;;;5001420;28;20579;-76
2021/08/05 13:49:31;;;;;;;2.27;1.13;;;28.20;66.60;;;;;;5017915;28;20634;-77
2021/08/05 13:51:57;;;;;;;1.43;0.80;;;28.20;66.40;;;;;;5017918;28;20201;-76
2021/08/05 13:54:23;;;;;;;1.83;1.00;;;28.20;65.60;;;;;;5033985;28;20184;-76
2021/08/05 13:56:48;;;;;;;1.70;1.00;;;28.20;65.80;;;;;;5034137;28;20232;-76
2021/08/05 13:59:15;;;;;;;1.60;1.10;;;28.20;66.10;;;;;;5010153;28;20716;-77
2021/08/05 14:01:41;;;;;;;1.73;0.93;;;28.30;66.30;;;;;;5051259;28;20653;-77
2021/08/05 14:04:07;;;;;;;1.83;0.90;;;28.40;66.20;;;;;;5051339;28;20208;-76